Terminal Aerodrome Forecast
Issued by NWS Shreveport, LA

Home | Current Version | Previous Version | Text Only | Print | Product List | Glossary On
Versions: 1 2 3 4 5 6 7 8 9 10 11 12 13 14 15 16 17 18 19 20 21 22 23
000
FTUS44 KSHV 260535
TAFELD
TAF
KELD 260535Z 2606/2706 00000KT P6SM SKC
     FM261500 VRB05KT P6SM FEW025
     FM261800 09006KT P6SM SCT035
     FM270000 06009KT P6SM FEW050 SCT150
     FM270300 05010KT P6SM VCSH OVC050=

USA.gov is the U.S. government's official web portal to all federal, state and local government web resources and services.